createdAt,value
2022-12-25T00:02:17.838Z,100197.50
2022-12-25T00:04:44.612Z,100359.38
2022-12-25T00:07:11.723Z,100356.22
2022-12-25T00:09:38.385Z,100233.69
2022-12-25T00:12:05.197Z,100206.56
2022-12-25T00:14:31.824Z,100359.25
2022-12-25T00:16:58.656Z,100377.16
2022-12-25T00:19:25.290Z,100369.13
2022-12-25T00:21:51.854Z,100363.06
2022-12-25T00:24:18.459Z,100362.91
2022-12-25T00:26:45.036Z,100070.72
2022-12-25T00:29:12.952Z,100328.06
2022-12-25T00:31:39.815Z,100320.31
2022-12-25T00:34:06.521Z,100183.00
2022-12-25T00:36:37.883Z,99973.41
2022-12-25T00:39:08.085Z,100373.44
2022-12-25T00:41:53.071Z,100215.31
2022-12-25T00:44:19.712Z,100325.88
2022-12-25T00:46:46.412Z,100358.16
2022-12-25T00:49:13.465Z,100319.53
2022-12-25T00:51:40.339Z,100367.75
2022-12-25T00:54:07.404Z,100386.41
2022-12-25T00:56:34.641Z,100415.44
2022-12-25T00:59:01.239Z,100401.53
2022-12-25T01:01:28.041Z,100394.91
2022-12-25T01:03:55.151Z,100312.59
2022-12-25T01:06:21.813Z,100272.78
2022-12-25T01:09:06.940Z,100412.28
2022-12-25T01:11:33.789Z,100312.09
2022-12-25T01:14:00.449Z,100360.09
2022-12-25T01:16:27.913Z,100394.16
2022-12-25T01:18:54.801Z,100390.63
2022-12-25T01:21:21.890Z,100421.00
2022-12-25T01:23:50.481Z,100354.56
2022-12-25T01:26:18.482Z,100262.69
2022-12-25T01:28:45.403Z,100387.56
2022-12-25T01:31:14.672Z,100381.19
2022-12-25T01:33:43.407Z,100302.19
2022-12-25T01:36:18.708Z,100374.53
2022-12-25T01:38:46.477Z,100235.56
2022-12-25T01:41:15.416Z,100383.78
2022-12-25T01:43:58.986Z,99964.59
2022-12-25T01:46:25.974Z,100382.78
2022-12-25T01:48:54.355Z,100394.19
2022-12-25T01:51:34.434Z,100403.59
2022-12-25T01:54:05.635Z,100251.34
2022-12-25T01:56:34.552Z,100416.16
2022-12-25T01:59:04.126Z,100386.00
2022-12-25T02:01:30.918Z,100429.06
2022-12-25T02:04:07.066Z,100424.84
2022-12-25T02:06:35.118Z,100431.97
2022-12-25T02:09:01.915Z,100330.91
2022-12-25T02:11:47.252Z,100418.91
2022-12-25T02:14:13.876Z,100420.38
2022-12-25T02:16:57.414Z,100390.84
2022-12-25T02:19:28.316Z,100407.59
2022-12-25T02:22:03.895Z,100406.88
2022-12-25T02:24:51.917Z,100407.03
2022-12-25T02:27:55.909Z,100410.97
2022-12-25T02:30:22.796Z,100410.66
2022-12-25T02:33:18.930Z,100393.94
2022-12-25T02:35:50.760Z,100302.88
2022-12-25T02:38:27.916Z,100417.78
2022-12-25T02:40:59.760Z,100425.03
2022-12-25T02:43:59.364Z,100372.88
2022-12-25T02:46:46.555Z,100401.31
2022-12-25T02:49:36.732Z,100402.75
2022-12-25T02:52:27.444Z,100433.41
2022-12-25T02:55:20.770Z,100368.56
2022-12-25T02:58:09.673Z,100389.66
2022-12-25T03:01:02.202Z,100399.81
2022-12-25T03:03:51.534Z,100381.78
2022-12-25T03:06:39.525Z,100190.00
2022-12-25T03:09:27.968Z,100380.53
2022-12-25T03:12:15.239Z,100379.41
2022-12-25T03:15:00.452Z,100340.56
2022-12-25T03:17:27.199Z,100378.16
2022-12-25T03:20:12.392Z,100388.78
2022-12-25T03:23:00.058Z,100207.75
2022-12-25T03:25:47.123Z,100367.50
2022-12-25T03:28:14.032Z,100404.94
2022-12-25T03:31:14.130Z,100156.75
2022-12-25T03:34:17.470Z,100352.66
2022-12-25T03:37:16.649Z,100167.41
2022-12-25T03:40:22.379Z,100389.06
2022-12-25T03:43:14.324Z,100363.78
2022-12-25T03:46:05.235Z,100383.78
2022-12-25T03:48:54.543Z,100377.59
2022-12-25T03:51:47.655Z,100377.06
2022-12-25T03:54:37.129Z,100372.25
2022-12-25T03:57:22.746Z,100352.94
2022-12-25T04:00:08.138Z,100313.41
2022-12-25T04:02:55.389Z,100282.69
2022-12-25T04:05:41.137Z,100080.38
2022-12-25T04:08:26.130Z,100193.34
2022-12-25T04:11:11.434Z,100297.06
2022-12-25T04:13:56.915Z,100272.44
2022-12-25T04:16:41.959Z,99941.00
2022-12-25T04:19:28.469Z,100059.78
2022-12-25T04:22:13.770Z,100185.97
2022-12-25T04:24:58.813Z,99997.03
2022-12-25T04:27:43.887Z,100177.22
2022-12-25T04:30:29.344Z,100314.84
2022-12-25T04:33:17.740Z,100290.31
2022-12-25T04:36:06.767Z,100279.00
2022-12-25T04:38:33.464Z,100158.03
2022-12-25T04:41:03.712Z,100145.22
2022-12-25T04:43:30.611Z,100238.63
2022-12-25T04:45:59.731Z,100195.34
2022-12-25T04:48:27.791Z,100312.56
2022-12-25T04:50:54.389Z,100302.75
2022-12-25T04:53:21.099Z,100294.56
2022-12-25T04:55:47.745Z,100283.69
2022-12-25T04:58:14.525Z,100253.91
2022-12-25T05:00:41.076Z,100130.97
2022-12-25T05:03:07.867Z,100283.56
2022-12-25T05:05:34.535Z,100238.44
2022-12-25T05:08:01.208Z,100217.81
2022-12-25T05:10:27.841Z,100048.94
2022-12-25T05:12:54.652Z,100256.72
2022-12-25T05:15:21.226Z,100249.50
2022-12-25T05:17:47.865Z,100138.09
2022-12-25T05:20:14.403Z,100233.13
2022-12-25T05:22:42.168Z,100308.75
2022-12-25T05:25:08.903Z,100273.44
2022-12-25T05:27:35.547Z,100205.66
2022-12-25T05:30:02.933Z,100256.44
2022-12-25T05:32:29.537Z,100133.13
2022-12-25T05:34:56.152Z,100274.44
2022-12-25T05:37:22.788Z,100277.53
2022-12-25T05:39:49.383Z,100274.69
2022-12-25T05:42:15.983Z,100276.03
2022-12-25T05:44:42.565Z,100268.59
2022-12-25T05:47:09.250Z,100283.50
2022-12-25T05:49:35.815Z,100150.09
2022-12-25T05:52:02.573Z,100301.38
2022-12-25T05:54:29.157Z,100309.69
2022-12-25T05:56:55.928Z,100302.56
2022-12-25T05:59:22.530Z,100293.47
2022-12-25T06:01:49.264Z,100265.84
2022-12-25T06:04:16.040Z,100212.50
2022-12-25T06:06:42.719Z,100283.03
2022-12-25T06:09:11.681Z,100256.72
2022-12-25T06:11:38.325Z,100256.09
2022-12-25T06:14:05.733Z,100290.38
2022-12-25T06:16:37.913Z,100277.97
2022-12-25T06:19:05.009Z,100284.41
2022-12-25T06:21:32.075Z,100273.09
2022-12-25T06:24:02.145Z,100206.19
2022-12-25T06:26:28.810Z,100183.78
2022-12-25T06:28:55.364Z,100263.59
2022-12-25T06:31:23.680Z,100277.59
2022-12-25T06:33:50.645Z,100260.72
2022-12-25T06:36:19.785Z,100245.50
2022-12-25T06:38:46.910Z,99929.63
2022-12-25T06:41:16.855Z,100242.16
2022-12-25T06:43:43.860Z,100259.41
2022-12-25T06:46:12.382Z,100187.09
2022-12-25T06:48:40.700Z,100240.94
2022-12-25T06:51:07.908Z,100177.34
2022-12-25T06:53:39.716Z,100087.44
2022-12-25T06:56:15.240Z,100237.66
2022-12-25T06:58:50.263Z,100181.75
2022-12-25T07:01:19.799Z,100247.75
2022-12-25T07:03:48.500Z,100248.28
2022-12-25T07:06:15.229Z,100000.22
2022-12-25T07:08:41.781Z,100243.47
2022-12-25T07:11:08.902Z,100241.97
2022-12-25T07:13:35.491Z,100036.78
2022-12-25T07:16:04.097Z,100116.66
2022-12-25T07:18:31.547Z,100222.91
2022-12-25T07:20:59.711Z,100233.78
2022-12-25T07:23:26.866Z,99873.78
2022-12-25T07:25:58.326Z,100224.88
2022-12-25T07:28:26.010Z,100225.59
2022-12-25T07:30:53.206Z,100192.50
2022-12-25T07:33:20.106Z,100190.06
2022-12-25T07:35:46.922Z,100205.50
2022-12-25T07:38:13.554Z,100178.19
2022-12-25T07:40:40.158Z,100224.88
2022-12-25T07:43:06.812Z,100160.31
2022-12-25T07:45:33.810Z,100057.00
2022-12-25T07:48:05.206Z,100243.91
2022-12-25T07:50:33.084Z,100011.03
2022-12-25T07:52:59.761Z,100162.69
2022-12-25T07:55:26.435Z,100233.28
2022-12-25T07:57:53.388Z,100236.22
2022-12-25T08:00:20.509Z,100230.13
2022-12-25T08:02:50.422Z,100219.59
2022-12-25T08:05:17.331Z,100225.63
2022-12-25T08:07:44.121Z,99875.69
2022-12-25T08:10:11.314Z,99842.34
2022-12-25T08:12:37.967Z,100220.22
2022-12-25T08:15:05.451Z,100224.97
2022-12-25T08:17:34.738Z,100223.50
2022-12-25T08:20:01.411Z,99775.81
2022-12-25T08:22:27.990Z,100175.63
2022-12-25T08:24:54.631Z,100187.50
2022-12-25T08:27:24.247Z,100218.59
2022-12-25T08:29:50.793Z,99872.41
2022-12-25T08:32:17.347Z,100217.75
2022-12-25T08:34:43.967Z,100207.47
2022-12-25T08:37:10.520Z,100198.38
2022-12-25T08:39:37.218Z,100172.97
2022-12-25T08:42:04.004Z,100183.94
2022-12-25T08:44:30.653Z,100181.72
2022-12-25T08:46:57.330Z,100177.03
2022-12-25T08:49:27.327Z,100192.31
2022-12-25T08:51:54.191Z,99897.75
2022-12-25T08:54:20.803Z,100172.19
2022-12-25T08:56:47.786Z,99880.72
2022-12-25T08:59:14.333Z,100078.28
2022-12-25T09:01:41.060Z,99980.03
2022-12-25T09:04:07.829Z,100136.53
2022-12-25T09:06:34.517Z,99961.97
2022-12-25T09:09:01.153Z,100167.22
2022-12-25T09:11:27.866Z,100156.00
2022-12-25T09:13:54.502Z,100171.25
2022-12-25T09:16:23.083Z,100161.25
2022-12-25T09:18:51.139Z,100145.28
2022-12-25T09:21:18.809Z,100142.03
2022-12-25T09:23:45.551Z,100146.13
2022-12-25T09:26:14.609Z,100141.63
2022-12-25T09:28:46.630Z,100143.41
2022-12-25T09:31:17.209Z,100107.03
2022-12-25T09:33:43.888Z,100142.72
2022-12-25T09:36:11.051Z,99993.19
2022-12-25T09:38:37.668Z,100005.69
2022-12-25T09:41:41.704Z,100126.91
2022-12-25T09:44:12.012Z,100122.47
2022-12-25T09:46:44.653Z,99728.69
2022-12-25T09:49:17.017Z,100114.94
2022-12-25T09:51:45.758Z,100122.75
2022-12-25T09:54:29.791Z,100125.47
2022-12-25T09:56:56.466Z,100153.09
2022-12-25T09:59:27.354Z,100031.59
2022-12-25T10:02:24.373Z,100052.88
2022-12-25T10:05:08.390Z,100108.53
2022-12-25T10:07:50.689Z,99718.19
2022-12-25T10:10:45.299Z,99999.56
2022-12-25T10:13:40.593Z,99982.00
2022-12-25T10:16:22.456Z,100028.75
2022-12-25T10:19:02.120Z,99807.16
2022-12-25T10:21:29.123Z,100024.13
2022-12-25T10:23:58.750Z,100094.31
2022-12-25T10:26:26.491Z,100093.00
2022-12-25T10:29:00.150Z,100083.25
2022-12-25T10:31:29.027Z,100096.88
2022-12-25T10:33:56.368Z,99928.59
2022-12-25T10:36:28.989Z,100082.38
2022-12-25T10:38:56.304Z,99998.03
2022-12-25T10:41:41.349Z,100072.25
2022-12-25T10:44:20.137Z,100070.56
2022-12-25T10:46:55.636Z,100067.28
2022-12-25T10:49:25.957Z,100074.56
2022-12-25T10:51:52.895Z,99858.31
2022-12-25T10:54:21.605Z,100063.44
2022-12-25T10:57:01.326Z,100057.94
2022-12-25T10:59:30.831Z,100053.03
2022-12-25T11:02:11.340Z,99990.81
2022-12-25T11:04:38.313Z,100038.56
2022-12-25T11:07:19.296Z,100038.03
2022-12-25T11:09:51.784Z,100032.13
2022-12-25T11:12:20.716Z,100030.88
2022-12-25T11:14:58.612Z,100032.38
2022-12-25T11:17:26.973Z,99890.09
2022-12-25T11:20:02.935Z,100040.53
2022-12-25T11:22:31.709Z,99992.59
2022-12-25T11:25:11.768Z,100012.06
2022-12-25T11:27:38.369Z,99781.34
2022-12-25T11:30:12.660Z,100011.22
2022-12-25T11:32:47.489Z,99720.72
2022-12-25T11:35:17.342Z,100004.75
2022-12-25T11:37:52.271Z,100000.16
2022-12-25T11:40:24.563Z,100001.44
2022-12-25T11:43:07.552Z,99997.97
2022-12-25T11:45:39.078Z,100001.84
2022-12-25T11:48:25.740Z,99865.47
2022-12-25T11:50:59.275Z,99989.38
2022-12-25T11:53:41.264Z,99978.63
2022-12-25T11:56:11.719Z,99976.59
2022-12-25T11:58:57.773Z,99968.66
2022-12-25T12:01:33.552Z,99964.75
2022-12-25T12:04:03.049Z,99960.94
2022-12-25T12:06:44.679Z,99955.16
2022-12-25T12:09:36.310Z,99948.22
2022-12-25T12:12:17.852Z,99716.63
2022-12-25T12:14:56.042Z,99884.25
2022-12-25T12:17:22.770Z,99946.31
2022-12-25T12:19:49.526Z,99946.69
2022-12-25T12:22:24.219Z,99902.16
2022-12-25T12:24:59.827Z,99921.66
2022-12-25T12:27:38.951Z,99937.66
2022-12-25T12:30:07.402Z,99943.53
2022-12-25T12:32:36.566Z,99935.16
2022-12-25T12:35:16.394Z,99947.47
2022-12-25T12:37:46.417Z,99923.31
2022-12-25T12:40:27.217Z,99776.69
2022-12-25T12:42:54.580Z,99908.94
2022-12-25T12:45:29.227Z,99843.63
2022-12-25T12:47:56.643Z,99810.53
2022-12-25T12:50:34.273Z,99903.19
2022-12-25T12:53:26.608Z,99899.75
2022-12-25T12:55:53.310Z,99892.59
2022-12-25T12:58:34.887Z,99890.97
2022-12-25T13:01:26.692Z,99889.56
2022-12-25T13:04:29.909Z,99888.41
2022-12-25T13:07:11.366Z,99464.03
2022-12-25T13:10:06.084Z,99890.63
2022-12-25T13:12:32.984Z,99888.88
2022-12-25T13:15:00.469Z,99839.81
2022-12-25T13:17:28.877Z,99885.31
2022-12-25T13:19:58.665Z,99695.00
2022-12-25T13:22:31.856Z,99841.78
2022-12-25T13:25:01.266Z,99868.41
2022-12-25T13:27:30.640Z,99869.34
2022-12-25T13:29:57.987Z,99861.63
2022-12-25T13:32:30.893Z,99856.44
2022-12-25T13:34:59.398Z,99854.88
2022-12-25T13:37:28.999Z,99853.91
2022-12-25T13:39:59.176Z,99720.72
2022-12-25T13:42:32.576Z,99812.47
2022-12-25T13:45:20.659Z,99775.97
2022-12-25T13:47:53.098Z,99643.22
2022-12-25T13:50:28.904Z,99753.97
2022-12-25T13:53:14.118Z,99777.13
2022-12-25T13:55:42.342Z,99686.22
2022-12-25T13:58:27.408Z,99834.75
2022-12-25T14:00:56.840Z,99830.44
2022-12-25T14:03:34.848Z,99833.06
2022-12-25T14:06:04.339Z,99833.75
2022-12-25T14:08:33.602Z,99747.69
2022-12-25T14:11:05.907Z,99833.69
2022-12-25T14:13:37.450Z,99829.00
2022-12-25T14:16:07.136Z,99800.59
2022-12-25T14:18:34.368Z,99833.06
2022-12-25T14:21:24.077Z,99836.13
2022-12-25T14:23:50.988Z,99810.31
2022-12-25T14:26:20.854Z,99820.84
2022-12-25T14:29:16.756Z,99697.19
2022-12-25T14:31:45.409Z,99826.00
2022-12-25T14:34:17.965Z,99650.75
2022-12-25T14:36:45.228Z,99815.97
2022-12-25T14:39:33.464Z,99813.16
2022-12-25T14:42:10.208Z,99749.03
2022-12-25T14:44:39.489Z,99717.19
2022-12-25T14:47:26.817Z,99805.66
2022-12-25T14:49:54.686Z,99793.25
2022-12-25T14:52:32.334Z,99804.28
2022-12-25T14:55:05.951Z,99796.00
2022-12-25T14:57:40.336Z,99793.69
2022-12-25T15:00:21.020Z,99793.00
2022-12-25T15:02:48.993Z,99669.53
2022-12-25T15:05:41.817Z,99793.19
2022-12-25T15:08:08.498Z,99791.25
2022-12-25T15:13:22.249Z,99788.06
2022-12-25T15:16:19.429Z,99779.91
2022-12-25T15:18:50.564Z,99669.88
2022-12-25T15:21:28.686Z,99777.75
2022-12-25T15:23:59.881Z,99678.03
2022-12-25T15:26:28.820Z,99771.56
2022-12-25T15:28:55.460Z,99722.88
2022-12-25T15:31:31.959Z,99767.56
2022-12-25T15:34:01.239Z,99594.72
2022-12-25T15:36:27.991Z,99765.56
2022-12-25T15:38:54.992Z,99768.44
2022-12-25T15:41:53.398Z,99528.63
2022-12-25T15:44:20.192Z,99581.94
2022-12-25T15:46:47.475Z,99651.75
2022-12-25T15:49:15.235Z,99753.59
2022-12-25T15:51:43.263Z,99755.28
2022-12-25T15:54:10.516Z,99754.59
2022-12-25T15:56:43.557Z,99592.47
2022-12-25T15:59:14.392Z,99745.00
2022-12-25T16:01:45.674Z,99672.03
2022-12-25T16:04:12.756Z,99719.69
2022-12-25T16:06:39.301Z,99709.34
2022-12-25T16:09:05.979Z,99733.09
2022-12-25T16:11:32.527Z,99735.97
2022-12-25T16:13:59.308Z,99610.00
2022-12-25T16:16:26.156Z,99619.78
2022-12-25T16:18:52.754Z,99554.13
2022-12-25T16:21:21.079Z,99409.75
2022-12-25T16:23:47.935Z,99694.41
2022-12-25T16:26:14.903Z,99489.34
2022-12-25T16:28:41.572Z,99611.34
2022-12-25T16:31:08.344Z,99706.34
2022-12-25T16:33:34.929Z,99707.94
2022-12-25T16:36:01.624Z,99696.09
2022-12-25T16:38:28.194Z,99715.66
2022-12-25T16:41:00.162Z,99687.28
2022-12-25T16:43:27.944Z,99687.97
2022-12-25T16:45:54.724Z,99548.78
2022-12-25T16:48:21.626Z,99682.44
2022-12-25T16:50:48.281Z,99594.91
2022-12-25T16:53:14.925Z,99628.56
2022-12-25T16:55:41.620Z,99677.50
2022-12-25T16:58:08.312Z,99562.50
2022-12-25T17:00:37.095Z,99638.19
2022-12-25T17:03:03.925Z,99551.53
2022-12-25T17:05:33.567Z,99547.03
2022-12-25T17:08:00.185Z,99639.41
2022-12-25T17:10:27.102Z,99656.66
2022-12-25T17:12:54.032Z,99491.63
2022-12-25T17:15:21.970Z,99540.69
2022-12-25T17:17:48.533Z,99599.38
2022-12-25T17:20:15.263Z,99516.81
2022-12-25T17:22:41.863Z,99601.34
2022-12-25T17:25:09.016Z,99533.44
2022-12-25T17:27:35.622Z,99637.47
2022-12-25T17:30:02.218Z,99598.19
2022-12-25T17:32:28.786Z,99618.91
2022-12-25T17:34:55.435Z,99531.97
2022-12-25T17:37:22.157Z,99631.94
2022-12-25T17:39:48.902Z,99643.94
2022-12-25T17:42:15.549Z,99635.06
2022-12-25T17:44:42.409Z,99544.97
2022-12-25T17:47:09.096Z,99294.34
2022-12-25T17:49:37.883Z,99581.16
2022-12-25T17:52:04.586Z,99541.91
2022-12-25T17:54:31.347Z,99631.75
2022-12-25T17:56:57.969Z,99577.19
2022-12-25T17:59:29.706Z,99588.94
2022-12-25T18:01:56.588Z,99536.44
2022-12-25T18:04:24.315Z,99584.56
2022-12-25T18:06:51.288Z,99527.59
2022-12-25T18:09:18.854Z,99608.63
2022-12-25T18:11:45.827Z,99543.56
2022-12-25T18:14:15.226Z,99581.06
2022-12-25T18:16:44.386Z,99598.03
2022-12-25T18:19:12.786Z,99604.75
2022-12-25T18:21:39.865Z,99372.69
2022-12-25T18:24:07.606Z,99596.81
2022-12-25T18:26:35.141Z,99572.88
2022-12-25T18:29:03.004Z,99590.66
2022-12-25T18:31:32.566Z,99525.53
2022-12-25T18:34:00.352Z,99585.91
2022-12-25T18:36:29.072Z,99434.81
2022-12-25T18:38:57.430Z,99527.81
2022-12-25T18:41:24.470Z,99493.56
2022-12-25T18:43:53.461Z,99567.44
2022-12-25T18:46:24.938Z,99570.50
2022-12-25T18:48:53.249Z,99563.34
2022-12-25T18:51:19.989Z,99562.44
2022-12-25T18:53:46.808Z,99566.59
2022-12-25T18:56:15.647Z,99533.06
2022-12-25T18:58:43.284Z,99573.09
2022-12-25T19:01:18.106Z,99523.88
2022-12-25T19:03:46.076Z,99372.63
2022-12-25T19:06:33.078Z,99561.56
2022-12-25T19:08:59.744Z,99559.88
2022-12-25T19:11:26.584Z,99451.75
2022-12-25T19:13:53.297Z,99540.75
2022-12-25T19:16:20.237Z,99475.78
2022-12-25T19:18:46.834Z,99572.25
2022-12-25T19:21:13.471Z,99567.00
2022-12-25T19:23:40.111Z,99366.94
2022-12-25T19:26:08.112Z,99545.38
2022-12-25T19:28:35.584Z,99206.44
2022-12-25T19:31:04.211Z,99480.50
2022-12-25T19:33:31.859Z,99562.72
2022-12-25T19:36:02.975Z,99382.31
2022-12-25T19:38:29.663Z,99506.63
2022-12-25T19:41:02.874Z,99427.50
2022-12-25T19:43:35.326Z,99540.59
2022-12-25T19:46:02.683Z,99538.22
2022-12-25T19:48:30.591Z,99344.56
2022-12-25T19:50:57.266Z,99524.28
2022-12-25T19:53:24.533Z,99522.81
2022-12-25T19:55:55.456Z,99519.69
2022-12-25T19:58:23.596Z,99521.59
2022-12-25T20:00:57.905Z,99431.94
2022-12-25T20:03:25.113Z,99509.59
2022-12-25T20:05:52.425Z,99291.69
2022-12-25T20:08:19.678Z,99513.97
2022-12-25T20:10:46.587Z,99506.19
2022-12-25T20:13:13.235Z,99339.06
2022-12-25T20:15:39.995Z,99498.94
2022-12-25T20:18:06.733Z,99511.69
2022-12-25T20:20:33.355Z,99449.06
2022-12-25T20:22:59.971Z,99510.69
2022-12-25T20:25:26.708Z,99500.50
2022-12-25T20:27:53.429Z,99506.34
2022-12-25T20:30:19.990Z,99509.38
2022-12-25T20:32:50.339Z,99491.97
2022-12-25T20:35:17.675Z,99515.00
2022-12-25T20:37:44.708Z,99465.78
2022-12-25T20:40:12.101Z,99398.84
2022-12-25T20:42:38.697Z,99497.66
2022-12-25T20:45:07.464Z,99456.06
2022-12-25T20:47:34.920Z,99501.94
2022-12-25T20:50:01.951Z,99478.72
2022-12-25T20:52:28.545Z,99477.91
2022-12-25T20:54:55.192Z,99473.97
2022-12-25T20:57:22.109Z,99477.44
2022-12-25T20:59:48.755Z,99306.75
2022-12-25T21:02:35.042Z,99435.56
2022-12-25T21:05:02.275Z,98904.19
2022-12-25T21:07:29.087Z,99380.22
2022-12-25T21:09:55.837Z,99469.41
2022-12-25T21:12:22.419Z,99396.84
2022-12-25T21:14:49.030Z,99470.91
2022-12-25T21:17:16.884Z,99463.25
2022-12-25T21:19:43.605Z,99296.28
2022-12-25T21:22:10.352Z,99420.41
2022-12-25T21:24:37.120Z,99355.59
2022-12-25T21:27:03.804Z,99448.47
2022-12-25T21:29:30.828Z,99402.97
2022-12-25T21:32:15.886Z,99431.50
2022-12-25T21:34:42.580Z,99403.66
2022-12-25T21:37:09.142Z,99421.25
2022-12-25T21:39:35.818Z,99434.47
2022-12-25T21:42:04.658Z,99379.44
2022-12-25T21:44:31.407Z,99162.16
2022-12-25T21:46:57.966Z,99433.25
2022-12-25T21:49:43.431Z,99400.72
2022-12-25T21:52:10.528Z,99424.13
2022-12-25T21:54:37.497Z,99421.88
2022-12-25T21:57:05.034Z,99425.13
2022-12-25T21:59:31.654Z,99418.03
2022-12-25T22:01:59.490Z,99411.41
2022-12-25T22:04:26.587Z,99298.00
2022-12-25T22:07:11.826Z,99403.19
2022-12-25T22:09:38.614Z,99408.41
2022-12-25T22:12:27.386Z,99413.03
2022-12-25T22:15:02.762Z,99407.50
2022-12-25T22:17:51.911Z,99403.19
2022-12-25T22:20:24.287Z,99404.66
2022-12-25T22:22:51.350Z,99398.13
2022-12-25T22:25:18.895Z,99398.13
2022-12-25T22:27:46.932Z,99399.53
2022-12-25T22:30:16.292Z,99237.22
2022-12-25T22:32:43.492Z,99313.34
2022-12-25T22:35:12.477Z,99393.72
2022-12-25T22:37:40.215Z,99403.69
2022-12-25T22:40:07.994Z,99382.53
2022-12-25T22:42:35.089Z,99289.56
2022-12-25T22:45:02.475Z,99385.91
2022-12-25T22:47:29.157Z,99379.56
2022-12-25T22:49:55.830Z,99378.63
2022-12-25T22:52:22.644Z,99389.91
2022-12-25T22:54:49.356Z,99377.94
2022-12-25T22:57:15.971Z,99332.41
2022-12-25T22:59:42.603Z,99383.00
2022-12-25T23:02:09.287Z,99390.00
2022-12-25T23:04:36.094Z,99378.75
2022-12-25T23:07:02.792Z,99362.28
2022-12-25T23:09:31.079Z,99331.72
2022-12-25T23:11:58.744Z,99318.09
2022-12-25T23:14:41.771Z,99356.59
2022-12-25T23:17:29.883Z,99346.19
2022-12-25T23:20:18.239Z,99368.84
2022-12-25T23:23:04.615Z,99359.06
2022-12-25T23:25:49.923Z,99362.88
2022-12-25T23:28:36.560Z,99367.75
2022-12-25T23:31:03.365Z,99361.50
2022-12-25T23:33:30.160Z,99267.25
2022-12-25T23:35:56.777Z,99352.69
2022-12-25T23:38:23.357Z,99344.81
2022-12-25T23:40:49.956Z,99341.94
2022-12-25T23:43:16.836Z,99319.47
2022-12-25T23:45:43.447Z,99333.91
2022-12-25T23:48:10.006Z,99330.09
2022-12-25T23:50:37.491Z,99339.81
2022-12-25T23:53:04.068Z,99341.13
2022-12-25T23:55:30.713Z,99343.09
2022-12-25T23:57:57.277Z,99345.66
